Time;durP1;ratioP1;P1;durP2;ratioP2;P2;SDS_P1;SDS_P2;PMS_P1;PMS_P2;Temp;Humidity;BMP_temperature;BMP_pressure;BME280_temperature;BME280_humidity;BME280_pressure;Samples;Min_cycle;Max_cycle;Signal;HPM_P1;HPM_P2
2022/05/27 00:00:42;;;;;;;7.10;3.73;;;15.50;99.90;;;;;;5032951;28;20291;-72
2022/05/27 00:03:27;;;;;;;5.50;3.47;;;15.50;99.90;;;;;;5024672;28;20219;-73
2022/05/27 00:06:11;;;;;;;8.13;3.50;;;15.60;99.90;;;;;;5029656;28;20195;-74
2022/05/27 00:08:56;;;;;;;7.60;3.77;;;15.60;99.90;;;;;;5025316;28;20243;-72
2022/05/27 00:11:40;;;;;;;11.77;4.13;;;15.50;99.90;;;;;;5029356;28;20199;-73
2022/05/27 00:14:25;;;;;;;8.70;3.60;;;15.50;99.90;;;;;;5032098;28;20183;-73
2022/05/27 00:17:08;;;;;;;7.40;3.63;;;15.60;99.90;;;;;;5031385;28;20194;-73
2022/05/27 00:19:53;;;;;;;7.40;3.63;;;15.60;99.90;;;;;;5025804;28;20214;-74
2022/05/27 00:22:37;;;;;;;7.77;4.37;;;15.60;99.90;;;;;;5026925;28;20211;-73
2022/05/27 00:25:22;;;;;;;8.53;4.00;;;15.50;99.90;;;;;;5027906;28;20183;-72
2022/05/27 00:28:06;;;;;;;7.77;4.00;;;15.50;99.90;;;;;;5025668;28;20186;-73
2022/05/27 00:30:52;;;;;;;7.90;4.50;;;15.50;99.90;;;;;;5039248;28;20206;-72
2022/05/27 00:33:38;;;;;;;5.40;4.37;;;15.50;99.90;;;;;;5031791;28;20276;-72
2022/05/27 00:36:22;;;;;;;6.67;4.07;;;15.50;99.90;;;;;;5032775;28;20187;-73
2022/05/27 00:39:06;;;;;;;9.57;5.03;;;15.50;99.90;;;;;;5031886;28;20199;-72
2022/05/27 00:41:50;;;;;;;6.40;4.37;;;15.50;99.90;;;;;;5029092;28;20267;-73
2022/05/27 00:44:34;;;;;;;7.13;4.23;;;15.40;99.90;;;;;;5031492;28;20698;-71
2022/05/27 00:47:22;;;;;;;9.63;3.80;;;15.40;99.90;;;;;;5021829;28;20242;-72
2022/05/27 00:50:10;;;;;;;8.40;3.60;;;15.40;99.90;;;;;;5038358;28;20218;-71
2022/05/27 00:52:55;;;;;;;5.37;3.10;;;15.30;99.90;;;;;;5011750;28;20223;-71
2022/05/27 00:55:55;;;;;;;7.13;2.67;;;15.20;99.90;;;;;;5022039;28;20207;-72
2022/05/27 00:58:56;;;;;;;4.90;2.70;;;15.10;99.90;;;;;;5033985;28;20251;-72
2022/05/27 01:01:41;;;;;;;5.53;2.63;;;15.00;99.90;;;;;;5035460;28;20206;-72
2022/05/27 01:04:28;;;;;;;7.53;2.37;;;14.90;99.90;;;;;;5028040;28;20207;-72
2022/05/27 01:07:13;;;;;;;4.23;2.30;;;14.80;99.90;;;;;;5045523;28;20190;-71
2022/05/27 01:09:58;;;;;;;3.37;2.23;;;14.80;99.90;;;;;;5042089;28;20210;-72
2022/05/27 01:12:45;;;;;;;5.97;2.50;;;14.70;99.90;;;;;;5049865;28;20221;-72
2022/05/27 01:15:52;;;;;;;2.47;2.03;;;14.70;99.90;;;;;;5051178;28;20190;-72
2022/05/27 01:22:08;;;;;;;5.40;2.17;;;14.70;99.90;;;;;;5034366;28;20542;-72
2022/05/27 01:25:39;;;;;;;2.47;2.10;;;14.60;99.90;;;;;;5034860;28;20187;-72
2022/05/27 01:28:44;;;;;;;3.30;1.87;;;14.50;99.90;;;;;;5033307;28;20258;-73
2022/05/27 01:31:49;;;;;;;3.47;2.00;;;14.50;99.90;;;;;;5040559;28;20190;-72
2022/05/27 01:35:11;;;;;;;3.80;2.00;;;14.50;99.90;;;;;;5048892;28;20191;-72
2022/05/27 01:38:22;;;;;;;4.03;2.30;;;14.50;99.90;;;;;;5045534;28;20721;-72
2022/05/27 01:41:16;;;;;;;3.67;2.37;;;14.50;99.90;;;;;;5015180;28;20258;-73
2022/05/27 01:44:11;;;;;;;3.73;2.13;;;14.50;99.90;;;;;;5016227;28;20695;-72
2022/05/27 01:46:56;;;;;;;5.50;2.00;;;14.40;99.90;;;;;;5047465;28;20182;-72
2022/05/27 01:49:49;;;;;;;3.70;2.33;;;14.40;99.90;;;;;;5049569;28;20268;-72
2022/05/27 01:52:45;;;;;;;3.53;2.20;;;14.40;99.90;;;;;;5034297;28;20199;-72
2022/05/27 01:55:36;;;;;;;4.40;2.30;;;14.40;99.90;;;;;;5035521;28;20167;-72
2022/05/27 01:58:35;;;;;;;4.00;2.37;;;14.40;99.90;;;;;;5025513;28;20198;-73
2022/05/27 02:01:25;;;;;;;3.63;1.70;;;14.40;99.90;;;;;;5054644;28;20545;-72
2022/05/27 02:04:33;;;;;;;3.47;2.33;;;14.40;99.90;;;;;;5039555;28;20246;-72
2022/05/27 02:07:37;;;;;;;5.10;2.50;;;14.40;99.90;;;;;;5015800;28;20227;-71
2022/05/27 02:10:40;;;;;;;4.73;2.50;;;14.40;99.90;;;;;;5041216;28;20222;-70
2022/05/27 02:13:32;;;;;;;4.53;2.53;;;14.30;99.90;;;;;;5036945;28;20202;-71
2022/05/27 02:16:22;;;;;;;5.73;2.53;;;14.40;99.90;;;;;;5032808;28;20246;-73
2022/05/27 02:19:20;;;;;;;6.67;2.60;;;14.30;99.90;;;;;;5049696;28;20183;-72
2022/05/27 02:22:16;;;;;;;5.57;2.47;;;14.30;99.90;;;;;;5014151;28;20300;-71
2022/05/27 02:25:04;;;;;;;5.10;2.67;;;14.30;99.90;;;;;;5014287;28;20175;-72
2022/05/27 02:27:53;;;;;;;3.27;2.90;;;14.20;99.90;;;;;;5039708;28;20180;-71
2022/05/27 02:30:42;;;;;;;2.97;2.57;;;14.20;99.90;;;;;;5013554;28;20642;-72
2022/05/27 02:36:47;;;;;;;7.00;2.97;;;14.20;99.90;;;;;;5028434;28;20187;-71
2022/05/27 02:39:32;;;;;;;6.67;2.80;;;14.20;99.90;;;;;;5031224;28;20266;-72
2022/05/27 02:42:32;;;;;;;9.27;3.30;;;14.20;99.90;;;;;;5033507;28;20218;-73
2022/05/27 02:45:48;;;;;;;6.13;3.20;;;14.20;99.90;;;;;;5033555;28;20318;-73
2022/05/27 02:48:38;;;;;;;8.23;2.93;;;14.10;99.90;;;;;;5026047;28;20191;-72
2022/05/27 02:51:35;;;;;;;6.83;3.03;;;14.10;99.90;;;;;;5031991;28;20191;-72
2022/05/27 02:54:31;;;;;;;8.40;3.23;;;14.00;99.90;;;;;;5033883;28;20556;-71
2022/05/27 02:57:24;;;;;;;5.97;3.00;;;14.00;99.90;;;;;;5038634;28;20203;-72
2022/05/27 03:00:18;;;;;;;6.00;2.80;;;14.00;99.90;;;;;;5032354;28;20230;-72
2022/05/27 03:03:03;;;;;;;7.20;3.10;;;13.90;99.90;;;;;;5032824;28;20239;-72
2022/05/27 03:06:00;;;;;;;7.87;3.27;;;13.90;99.90;;;;;;5034335;28;20249;-72
2022/05/27 03:09:06;;;;;;;5.43;3.13;;;13.90;99.90;;;;;;5036437;28;20227;-72
2022/05/27 03:12:32;;;;;;;6.90;3.37;;;13.90;99.90;;;;;;5044422;28;20195;-72
2022/05/27 03:15:27;;;;;;;9.20;3.23;;;13.80;99.90;;;;;;5047553;28;20226;-72
2022/05/27 03:18:31;;;;;;;5.27;3.30;;;13.80;99.90;;;;;;5032586;28;20256;-72
2022/05/27 03:21:41;;;;;;;11.30;3.92;;;13.80;99.90;;;;;;5011162;28;20435;-71
2022/05/27 03:24:27;;;;;;;5.13;3.53;;;13.80;99.90;;;;;;5032906;28;20244;-71
2022/05/27 03:27:21;;;;;;;11.77;3.70;;;13.80;99.90;;;;;;5034540;28;20245;-73
2022/05/27 03:30:08;;;;;;;8.67;3.70;;;13.80;99.90;;;;;;5035767;28;20203;-72
2022/05/27 03:33:07;;;;;;;7.73;2.93;;;13.80;99.90;;;;;;5031325;28;20191;-71
2022/05/27 03:36:13;;;;;;;8.20;3.67;;;13.80;99.90;;;;;;5027884;28;20456;-72
2022/05/27 03:39:24;;;;;;;8.03;3.53;;;13.80;99.90;;;;;;5025876;28;20218;-71
2022/05/27 03:42:11;;;;;;;11.23;3.87;;;13.80;99.90;;;;;;5031422;28;20199;-72
2022/05/27 03:45:03;;;;;;;8.40;3.73;;;13.70;99.90;;;;;;5035375;28;20235;-72
2022/05/27 03:47:49;;;;;;;7.50;3.53;;;13.70;99.90;;;;;;5031982;28;20279;-72
2022/05/27 03:50:33;;;;;;;8.00;4.20;;;13.70;99.90;;;;;;5031758;28;20273;-71
2022/05/27 03:53:18;;;;;;;7.63;3.57;;;13.70;99.90;;;;;;5046064;28;20186;-73
2022/05/27 03:56:03;;;;;;;10.53;4.07;;;13.70;99.90;;;;;;5049285;28;20241;-73
2022/05/27 03:58:47;;;;;;;9.87;3.90;;;13.70;99.90;;;;;;5040727;28;20202;-72
2022/05/27 04:01:33;;;;;;;6.33;3.30;;;13.70;99.90;;;;;;5012087;28;20224;-71
2022/05/27 04:04:20;;;;;;;10.57;3.83;;;13.70;99.90;;;;;;5034643;28;20214;-72
2022/05/27 04:07:05;;;;;;;8.40;4.10;;;13.70;99.90;;;;;;5043196;28;20222;-72
2022/05/27 04:09:50;;;;;;;10.83;3.63;;;13.70;99.90;;;;;;5046034;28;20334;-72
2022/05/27 04:12:34;;;;;;;8.63;3.80;;;13.70;99.90;;;;;;5035456;28;20187;-72
2022/05/27 04:15:18;;;;;;;10.40;3.93;;;13.70;99.90;;;;;;5032192;28;20172;-73
2022/05/27 04:18:03;;;;;;;9.80;3.97;;;13.70;99.90;;;;;;5031336;28;20218;-73
2022/05/27 04:20:47;;;;;;;10.87;3.73;;;13.80;99.90;;;;;;5043629;28;20218;-72
2022/05/27 04:23:31;;;;;;;9.67;3.50;;;13.70;99.90;;;;;;5049291;28;20210;-72
2022/05/27 04:26:17;;;;;;;9.93;3.80;;;13.70;99.90;;;;;;5031403;28;20192;-71
2022/05/27 04:29:02;;;;;;;12.43;4.47;;;13.70;99.90;;;;;;5042581;28;20691;-72
2022/05/27 04:31:46;;;;;;;9.93;3.73;;;13.70;99.90;;;;;;5030244;28;20222;-72
2022/05/27 04:34:30;;;;;;;13.50;4.00;;;13.80;99.90;;;;;;5020983;28;20683;-72
2022/05/27 04:37:15;;;;;;;9.67;4.47;;;13.70;99.90;;;;;;5028579;28;20501;-72
2022/05/27 04:39:59;;;;;;;9.63;4.20;;;13.70;99.90;;;;;;5031061;28;20215;-72
2022/05/27 04:42:44;;;;;;;10.77;3.93;;;13.70;99.90;;;;;;5026412;28;20211;-72
2022/05/27 04:45:29;;;;;;;13.50;4.57;;;13.70;99.90;;;;;;5010597;28;20403;-73
2022/05/27 04:48:16;;;;;;;12.00;3.60;;;13.70;99.90;;;;;;5021144;28;20192;-73
2022/05/27 04:51:00;;;;;;;12.40;4.38;;;13.70;99.90;;;;;;5029984;28;20402;-73
2022/05/27 04:53:44;;;;;;;11.60;3.97;;;13.70;99.90;;;;;;5030666;28;20203;-71
2022/05/27 04:56:28;;;;;;;8.10;3.70;;;13.70;99.90;;;;;;5029876;28;20705;-72
2022/05/27 04:59:12;;;;;;;11.53;3.43;;;13.70;99.90;;;;;;5032129;28;20254;-74
2022/05/27 05:01:56;;;;;;;7.53;3.30;;;13.80;99.90;;;;;;5024265;28;20195;-72
2022/05/27 05:04:40;;;;;;;14.77;3.87;;;13.80;99.90;;;;;;5028381;28;20178;-73
2022/05/27 05:07:25;;;;;;;9.37;3.47;;;13.80;99.90;;;;;;5028874;28;20238;-73
2022/05/27 05:10:12;;;;;;;12.07;3.93;;;13.80;99.90;;;;;;5040823;28;20606;-72
2022/05/27 05:12:56;;;;;;;10.27;4.00;;;13.80;99.90;;;;;;5036501;28;20199;-72
2022/05/27 05:15:40;;;;;;;11.32;3.72;;;13.70;99.90;;;;;;5029514;28;20449;-72
2022/05/27 05:18:25;;;;;;;8.53;2.90;;;13.80;99.90;;;;;;5023567;28;20195;-72
2022/05/27 05:21:09;;;;;;;8.60;2.97;;;13.70;99.90;;;;;;5021217;28;20247;-73
2022/05/27 05:23:54;;;;;;;7.20;2.83;;;13.70;99.90;;;;;;5017550;28;20242;-72
2022/05/27 05:26:38;;;;;;;8.83;2.50;;;13.70;99.90;;;;;;5027919;28;20180;-73
2022/05/27 05:29:22;;;;;;;10.63;3.17;;;13.70;99.90;;;;;;5019301;28;20234;-72
2022/05/27 05:32:07;;;;;;;8.13;2.93;;;13.70;99.90;;;;;;5030057;28;20186;-71
2022/05/27 05:34:51;;;;;;;8.30;2.60;;;13.70;99.90;;;;;;5024392;28;20275;-72
2022/05/27 05:37:36;;;;;;;11.98;3.33;;;13.70;99.90;;;;;;5015873;28;20391;-72
2022/05/27 05:40:20;;;;;;;10.20;2.60;;;13.70;99.90;;;;;;5023697;28;20243;-72
2022/05/27 05:43:04;;;;;;;12.00;2.90;;;13.70;99.90;;;;;;5024489;28;20416;-73
2022/05/27 05:45:48;;;;;;;8.13;2.70;;;13.70;99.90;;;;;;5040592;28;20194;-72
2022/05/27 05:48:33;;;;;;;14.40;2.77;;;13.70;99.90;;;;;;5033865;28;20271;-73
2022/05/27 05:51:18;;;;;;;9.57;2.20;;;13.80;99.90;;;;;;5029565;28;20699;-72
2022/05/27 05:54:03;;;;;;;9.17;2.63;;;13.80;99.90;;;;;;5036877;28;20233;-73
2022/05/27 05:56:48;;;;;;;14.57;2.60;;;13.80;99.90;;;;;;5036829;28;20190;-72
2022/05/27 05:59:35;;;;;;;11.07;2.77;;;13.80;99.90;;;;;;5040081;28;20704;-71
2022/05/27 06:02:19;;;;;;;8.87;2.37;;;13.80;99.90;;;;;;5037462;28;20250;-71
2022/05/27 06:05:04;;;;;;;5.23;1.90;;;13.80;99.90;;;;;;5030404;28;20187;-70
2022/05/27 06:07:49;;;;;;;9.63;2.23;;;13.80;99.90;;;;;;5029838;28;20191;-71
2022/05/27 06:10:33;;;;;;;7.20;2.33;;;13.80;99.90;;;;;;5026173;28;20219;-71
2022/05/27 06:13:17;;;;;;;10.70;2.27;;;13.80;99.90;;;;;;5031750;28;20682;-70
2022/05/27 06:16:04;;;;;;;8.00;2.27;;;13.80;99.90;;;;;;5026998;28;20318;-71
2022/05/27 06:18:49;;;;;;;8.67;2.60;;;13.80;99.90;;;;;;5030177;28;20190;-71
2022/05/27 06:21:33;;;;;;;9.40;2.30;;;13.80;99.90;;;;;;5023855;28;20195;-71
2022/05/27 06:24:18;;;;;;;11.53;2.40;;;13.90;99.90;;;;;;5032600;28;20227;-71
2022/05/27 06:27:06;;;;;;;6.60;1.90;;;13.90;99.90;;;;;;5040501;28;20215;-70
2022/05/27 06:35:56;;;;;;;11.27;2.30;;;14.00;99.90;;;;;;5023325;28;20199;-70
2022/05/27 06:38:40;;;;;;;4.53;1.97;;;14.00;99.90;;;;;;5030715;28;20203;-70
2022/05/27 06:41:24;;;;;;;9.77;2.30;;;14.00;99.90;;;;;;5025297;28;20265;-71
2022/05/27 06:44:09;;;;;;;7.20;2.07;;;14.00;99.90;;;;;;5030542;28;20258;-71
2022/05/27 06:46:54;;;;;;;7.80;1.70;;;14.10;99.90;;;;;;5018666;28;20601;-71
2022/05/27 06:49:38;;;;;;;9.70;2.27;;;14.20;99.90;;;;;;5026959;28;20207;-71
2022/05/27 06:52:24;;;;;;;9.27;1.93;;;14.20;99.90;;;;;;5025093;28;20278;-71
2022/05/27 06:55:13;;;;;;;7.27;2.07;;;14.20;99.90;;;;;;5041077;28;20188;-70
2022/05/27 06:57:58;;;;;;;8.83;2.43;;;14.10;99.90;;;;;;5030408;28;20230;-70
2022/05/27 07:00:42;;;;;;;8.90;2.30;;;14.20;99.90;;;;;;5017881;28;20758;-71
2022/05/27 07:03:26;;;;;;;8.67;2.47;;;14.20;99.90;;;;;;5024952;28;20247;-71
2022/05/27 07:06:12;;;;;;;11.27;2.60;;;14.20;99.90;;;;;;5028968;28;20242;-70
2022/05/27 07:08:56;;;;;;;8.50;2.20;;;14.30;99.90;;;;;;5033993;28;20195;-71
2022/05/27 07:11:42;;;;;;;12.43;2.43;;;14.30;99.90;;;;;;5031116;28;20555;-71
2022/05/27 07:14:26;;;;;;;9.30;2.10;;;14.40;99.90;;;;;;5033110;28;20274;-72
2022/05/27 07:17:10;;;;;;;8.70;2.57;;;14.50;99.90;;;;;;5027803;28;20191;-71
2022/05/27 07:19:54;;;;;;;8.07;2.20;;;14.50;99.90;;;;;;5024934;28;20750;-72
2022/05/27 07:22:38;;;;;;;9.83;1.93;;;14.60;99.90;;;;;;5027583;28;20690;-71
2022/05/27 07:25:22;;;;;;;9.40;2.30;;;14.70;99.90;;;;;;5028475;28;20183;-72
2022/05/27 07:28:07;;;;;;;6.47;1.93;;;14.70;99.90;;;;;;5023164;28;20199;-71
2022/05/27 07:30:53;;;;;;;6.90;2.60;;;14.70;99.90;;;;;;5028306;28;20207;-72
2022/05/27 07:33:37;;;;;;;6.97;1.70;;;14.80;99.90;;;;;;5024625;28;20268;-71
2022/05/27 07:36:22;;;;;;;8.97;1.93;;;14.80;99.90;;;;;;5027871;28;20199;-72
2022/05/27 07:39:06;;;;;;;6.80;1.73;;;14.80;99.90;;;;;;5027634;28;20266;-71
2022/05/27 07:41:50;;;;;;;8.97;1.57;;;14.90;99.90;;;;;;5025479;28;20242;-72
2022/05/27 07:44:34;;;;;;;6.27;1.70;;;14.80;99.90;;;;;;5028165;28;20187;-72
2022/05/27 07:47:19;;;;;;;8.77;2.17;;;14.80;99.90;;;;;;5027924;28;20196;-72
2022/05/27 07:50:04;;;;;;;7.90;1.73;;;14.90;99.90;;;;;;5027313;28;20219;-72
2022/05/27 07:52:49;;;;;;;9.43;2.37;;;14.90;99.90;;;;;;5024221;28;20280;-71
2022/05/27 07:55:33;;;;;;;7.27;2.00;;;15.00;99.90;;;;;;5030476;28;20199;-72
2022/05/27 07:58:17;;;;;;;6.43;1.73;;;15.00;99.90;;;;;;5026945;28;20211;-71
2022/05/27 08:01:02;;;;;;;8.07;2.07;;;15.00;99.90;;;;;;5028318;28;20242;-72
2022/05/27 08:03:46;;;;;;;8.47;2.00;;;15.00;99.90;;;;;;5031624;28;20226;-72
2022/05/27 08:06:30;;;;;;;8.57;2.23;;;15.00;99.90;;;;;;5041884;28;20656;-72
2022/05/27 08:09:15;;;;;;;7.10;1.83;;;15.00;99.90;;;;;;5031035;28;20243;-71
2022/05/27 08:11:59;;;;;;;8.20;2.30;;;14.90;99.90;;;;;;5031938;28;20190;-71
2022/05/27 08:14:43;;;;;;;6.77;1.90;;;14.90;99.90;;;;;;5028100;28;20242;-71
2022/05/27 08:17:28;;;;;;;8.80;2.17;;;14.90;99.90;;;;;;5019605;28;20359;-72
2022/05/27 08:20:18;;;;;;;10.20;2.67;;;15.00;99.90;;;;;;5030541;28;20214;-72
2022/05/27 08:23:03;;;;;;;6.77;1.50;;;15.10;99.90;;;;;;5031037;28;20262;-71
2022/05/27 08:25:47;;;;;;;7.90;1.50;;;15.10;99.90;;;;;;5029033;28;20241;-71
2022/05/27 08:28:31;;;;;;;5.13;1.50;;;15.20;99.90;;;;;;5027899;28;20230;-72
2022/05/27 08:31:16;;;;;;;24.87;2.27;;;15.20;99.90;;;;;;5029438;28;20238;-72
2022/05/27 08:40:30;;;;;;;6.07;1.77;;;15.00;99.90;;;;;;5027658;28;20238;-72
2022/05/27 08:43:18;;;;;;;10.73;1.93;;;15.10;99.90;;;;;;5001974;28;20234;-72
2022/05/27 08:46:23;;;;;;;7.60;2.20;;;15.30;99.90;;;;;;5024773;28;20186;-72
2022/05/27 08:49:13;;;;;;;10.67;2.13;;;15.40;99.90;;;;;;5033966;28;20207;-72
2022/05/27 08:52:19;;;;;;;6.80;1.87;;;15.40;99.90;;;;;;5024318;28;20219;-72
2022/05/27 08:59:26;;;;;;;9.73;2.20;;;15.30;99.90;;;;;;5027687;28;20230;-73
2022/05/27 09:01:37;;;;;;;7.23;1.60;;;15.30;99.90;;;;;;5030967;28;20222;-72
2022/05/27 09:04:27;;;;;;;7.13;2.00;;;15.30;99.90;;;;;;5029370;28;20251;-72
2022/05/27 09:07:23;;;;;;;5.17;1.60;;;15.30;99.90;;;;;;5029610;28;20306;-72
2022/05/27 09:10:13;;;;;;;7.50;1.73;;;15.40;99.90;;;;;;5027136;28;20247;-72
2022/05/27 09:13:03;;;;;;;10.63;1.70;;;15.40;99.90;;;;;;5024074;28;20234;-72
2022/05/27 09:16:01;;;;;;;6.63;2.10;;;15.40;99.90;;;;;;5021651;28;20196;-72
2022/05/27 09:18:47;;;;;;;6.60;1.83;;;15.50;99.90;;;;;;5027911;28;20191;-72
2022/05/27 09:22:10;;;;;;;6.93;1.70;;;15.50;99.90;;;;;;5027983;28;20191;-72
2022/05/27 09:25:13;;;;;;;8.97;1.53;;;15.50;99.90;;;;;;5027334;28;20246;-72
2022/05/27 09:28:11;;;;;;;12.37;2.20;;;15.60;99.90;;;;;;5025208;28;20212;-72
2022/05/27 09:30:58;;;;;;;6.67;1.60;;;15.60;99.90;;;;;;5031255;28;20271;-72
2022/05/27 09:33:43;;;;;;;13.10;2.13;;;15.70;99.90;;;;;;5032523;28;20234;-72
2022/05/27 09:36:36;;;;;;;8.07;2.10;;;15.60;99.90;;;;;;5033654;28;20254;-73
2022/05/27 09:39:24;;;;;;;7.00;1.70;;;15.50;99.90;;;;;;5034623;28;20254;-73
2022/05/27 09:42:24;;;;;;;5.63;1.70;;;15.50;99.90;;;;;;5034738;28;20200;-72
2022/05/27 09:45:08;;;;;;;8.83;1.63;;;15.40;99.90;;;;;;5039425;28;20570;-72
2022/05/27 09:47:59;;;;;;;6.47;1.83;;;15.40;99.90;;;;;;5033922;28;20179;-72
2022/05/27 09:50:46;;;;;;;5.60;2.03;;;15.30;99.90;;;;;;5033725;28;20295;-72
2022/05/27 09:53:36;;;;;;;4.87;1.70;;;15.30;99.90;;;;;;5034220;28;20195;-72
2022/05/27 09:56:45;;;;;;;9.70;2.37;;;15.30;99.90;;;;;;5037445;28;20214;-72
2022/05/27 09:59:39;;;;;;;6.30;1.63;;;15.30;99.90;;;;;;5027307;28;20273;-72
2022/05/27 10:02:29;;;;;;;7.43;1.80;;;15.40;99.90;;;;;;5033766;28;20203;-72
2022/05/27 10:05:23;;;;;;;2.73;1.43;;;15.40;99.90;;;;;;5031195;28;20291;-73
2022/05/27 10:08:08;;;;;;;11.37;1.93;;;15.60;99.90;;;;;;5030004;28;20303;-73
2022/05/27 10:11:16;;;;;;;6.23;1.43;;;15.60;99.90;;;;;;5034547;28;20215;-73
2022/05/27 10:14:06;;;;;;;6.00;1.57;;;15.70;99.90;;;;;;5041247;28;20190;-72
2022/05/27 10:17:13;;;;;;;7.03;1.73;;;15.80;99.90;;;;;;5027126;28;20188;-74
2022/05/27 10:20:29;;;;;;;7.00;1.67;;;15.90;99.90;;;;;;5026682;28;20212;-73
2022/05/27 10:23:24;;;;;;;7.63;1.60;;;16.00;99.90;;;;;;5028675;28;20277;-73
2022/05/27 10:26:29;;;;;;;10.30;1.50;;;16.00;99.90;;;;;;5028489;28;20239;-73
2022/05/27 10:29:16;;;;;;;5.13;1.67;;;16.10;99.90;;;;;;5030825;28;20242;-74
2022/05/27 10:32:02;;;;;;;6.73;2.03;;;16.20;99.90;;;;;;5029767;28;20187;-73
2022/05/27 10:34:46;;;;;;;10.33;2.47;;;16.30;99.90;;;;;;5023551;28;20222;-73
2022/05/27 10:37:36;;;;;;;6.37;1.20;;;16.30;99.90;;;;;;5027469;28;20192;-74
2022/05/27 10:40:33;;;;;;;9.57;1.90;;;16.30;99.90;;;;;;5021565;28;20318;-73
2022/05/27 10:43:38;;;;;;;12.20;2.37;;;16.30;99.90;;;;;;5029689;28;20745;-73
2022/05/27 10:46:28;;;;;;;11.07;2.40;;;16.20;99.90;;;;;;5024974;28;20678;-73
2022/05/27 10:49:31;;;;;;;8.87;1.90;;;16.10;99.90;;;;;;5031845;28;20216;-73
2022/05/27 10:52:49;;;;;;;7.53;1.87;;;16.20;99.90;;;;;;5025862;28;20728;-73
2022/05/27 10:55:51;;;;;;;8.40;1.75;;;16.30;99.90;;;;;;5029665;28;20462;-73
2022/05/27 11:02:26;;;;;;;6.13;1.60;;;16.50;99.90;;;;;;5027034;28;20215;-73
2022/05/27 11:05:29;;;;;;;8.15;1.92;;;16.50;99.90;;;;;;5031859;28;20483;-73
2022/05/27 11:08:26;;;;;;;7.93;1.50;;;16.50;99.90;;;;;;5030192;28;20194;-73
2022/05/27 11:11:34;;;;;;;5.50;1.37;;;16.60;99.90;;;;;;5029950;28;20679;-73
2022/05/27 11:17:52;;;;;;;5.17;1.30;;;16.70;99.90;;;;;;5031854;28;20195;-73
2022/05/27 11:20:45;;;;;;;8.63;1.60;;;16.70;99.90;;;;;;5031242;28;20210;-73
2022/05/27 11:24:08;;;;;;;5.77;1.10;;;16.70;99.90;;;;;;5030961;28;20254;-72
2022/05/27 11:27:08;;;;;;;7.18;1.77;;;16.70;99.90;;;;;;5026660;28;20496;-72
2022/05/27 11:30:43;;;;;;;6.97;1.27;;;16.60;99.90;;;;;;5028845;28;20222;-72
2022/05/27 11:33:44;;;;;;;9.00;1.53;;;16.60;99.90;;;;;;5030908;28;20664;-73
2022/05/27 11:36:46;;;;;;;5.63;2.03;;;16.50;99.90;;;;;;5022750;28;20229;-72
2022/05/27 11:39:50;;;;;;;8.60;1.93;;;16.50;99.90;;;;;;5025859;28;20258;-72
2022/05/27 11:42:43;;;;;;;9.07;1.33;;;16.50;99.90;;;;;;5021750;28;20211;-73
2022/05/27 11:45:29;;;;;;;6.13;1.50;;;16.40;99.90;;;;;;5028143;28;20216;-72
2022/05/27 11:48:26;;;;;;;4.43;1.37;;;16.30;99.90;;;;;;5026888;28;20487;-74
2022/05/27 11:51:29;;;;;;;7.83;1.70;;;16.30;99.90;;;;;;5027867;28;20195;-73
2022/05/27 11:54:23;;;;;;;6.00;1.40;;;16.40;99.90;;;;;;5029000;28;20219;-74
2022/05/27 11:57:43;;;;;;;5.40;1.30;;;16.50;99.90;;;;;;5025810;28;20210;-74
2022/05/27 12:00:33;;;;;;;6.07;1.13;;;16.50;99.90;;;;;;5028423;28;20261;-73
2022/05/27 12:03:47;;;;;;;8.43;1.57;;;16.50;99.90;;;;;;5030769;28;20199;-74
2022/05/27 12:06:38;;;;;;;3.17;1.27;;;16.50;99.90;;;;;;5026997;28;20560;-72
2022/05/27 12:09:55;;;;;;;5.77;1.10;;;16.50;99.90;;;;;;5032180;28;20218;-73
2022/05/27 12:12:50;;;;;;;3.53;1.20;;;16.60;99.90;;;;;;5027574;28;20188;-73
2022/05/27 12:15:42;;;;;;;6.33;1.10;;;16.60;99.90;;;;;;5023880;28;20197;-72
2022/05/27 12:18:38;;;;;;;6.73;1.63;;;16.50;99.90;;;;;;5028576;28;20227;-73
2022/05/27 12:21:30;;;;;;;6.63;1.95;;;16.40;99.90;;;;;;5027233;28;20477;-73
2022/05/27 12:24:26;;;;;;;6.30;1.40;;;16.30;99.90;;;;;;5029835;28;20225;-74
2022/05/27 12:27:14;;;;;;;6.67;1.80;;;16.30;99.90;;;;;;5026698;28;20418;-72
2022/05/27 12:29:59;;;;;;;3.77;1.37;;;16.20;99.90;;;;;;5022519;28;20707;-74
2022/05/27 12:32:47;;;;;;;8.73;1.30;;;16.30;99.90;;;;;;5024650;28;20245;-73
2022/05/27 12:35:34;;;;;;;5.03;1.43;;;16.40;99.90;;;;;;5027981;28;20187;-70
2022/05/27 12:38:24;;;;;;;6.93;1.43;;;16.50;99.90;;;;;;5023258;28;20226;-71
2022/05/27 12:41:09;;;;;;;5.63;1.10;;;16.40;99.90;;;;;;5027772;28;20585;-71
2022/05/27 12:44:00;;;;;;;11.70;1.43;;;16.40;99.90;;;;;;5025019;28;20754;-71
2022/05/27 12:46:50;;;;;;;11.57;1.73;;;16.40;99.90;;;;;;5025978;28;20202;-70
2022/05/27 12:49:43;;;;;;;5.87;1.53;;;16.50;99.90;;;;;;5021143;28;20280;-71
2022/05/27 12:52:30;;;;;;;6.93;1.53;;;16.50;99.90;;;;;;5029243;28;20186;-71
2022/05/27 13:00:55;;;;;;;5.67;1.37;;;16.50;99.90;;;;;;5029997;28;20281;-71
2022/05/27 13:02:26;;;;;;;6.47;1.70;;;16.50;99.90;;;;;;5004442;28;20191;-70
2022/05/27 13:05:14;;;;;;;4.77;1.60;;;16.40;99.90;;;;;;5010541;28;20271;-72
2022/05/27 13:08:17;;;;;;;5.93;1.63;;;16.30;99.90;;;;;;5028419;28;20192;-71
2022/05/27 13:11:01;;;;;;;6.80;1.60;;;16.40;99.90;;;;;;5024738;28;20210;-71
2022/05/27 13:13:45;;;;;;;8.27;1.60;;;16.30;99.90;;;;;;5027935;28;20194;-71
2022/05/27 13:16:41;;;;;;;5.37;1.20;;;16.30;99.90;;;;;;5026037;28;20682;-71
2022/05/27 13:19:40;;;;;;;5.77;1.33;;;16.30;99.90;;;;;;5028556;28;20219;-71
2022/05/27 13:22:58;;;;;;;4.47;1.13;;;16.40;99.90;;;;;;5037049;28;20195;-72
2022/05/27 13:25:45;;;;;;;6.73;1.10;;;16.40;99.90;;;;;;5029983;28;20650;-72
2022/05/27 13:28:39;;;;;;;5.95;1.50;;;16.40;99.90;;;;;;5034462;28;20406;-71
2022/05/27 13:31:31;;;;;;;5.73;1.50;;;16.50;99.90;;;;;;5027462;28;20501;-71
2022/05/27 13:34:36;;;;;;;6.73;1.57;;;16.50;99.90;;;;;;5033727;28;20242;-71
2022/05/27 13:37:39;;;;;;;8.63;1.40;;;16.50;99.90;;;;;;5032187;28;20191;-71
2022/05/27 13:40:30;;;;;;;5.93;1.13;;;16.50;99.90;;;;;;5023796;28;20256;-72
2022/05/27 13:43:18;;;;;;;5.73;1.57;;;16.50;99.90;;;;;;5038475;28;20330;-70
2022/05/27 13:46:02;;;;;;;8.37;2.00;;;16.50;99.90;;;;;;5027695;28;20233;-71
2022/05/27 13:48:57;;;;;;;8.80;2.17;;;16.50;99.90;;;;;;5030780;28;20449;-71
2022/05/27 13:51:44;;;;;;;5.87;1.40;;;16.60;99.90;;;;;;5024174;28;20191;-70
2022/05/27 13:54:32;;;;;;;6.18;2.00;;;16.50;99.90;;;;;;5030542;28;20414;-71
2022/05/27 13:57:26;;;;;;;7.20;2.00;;;16.60;99.90;;;;;;5030443;28;20433;-70
2022/05/27 14:00:13;;;;;;;6.97;1.30;;;16.60;99.90;;;;;;5030573;28;20238;-70
2022/05/27 14:02:58;;;;;;;8.68;1.83;;;16.50;99.90;;;;;;5032381;28;20480;-70
2022/05/27 14:05:42;;;;;;;4.23;1.67;;;16.40;99.90;;;;;;5028520;28;20270;-71
2022/05/27 14:08:54;;;;;;;13.87;1.80;;;16.40;99.90;;;;;;5034023;28;20272;-71
2022/05/27 14:11:44;;;;;;;9.40;1.67;;;16.30;99.90;;;;;;5032914;28;20195;-71
2022/05/27 14:14:42;;;;;;;5.80;1.30;;;16.30;99.90;;;;;;5032532;28;20230;-70
2022/05/27 14:17:27;;;;;;;4.73;1.43;;;16.30;99.90;;;;;;5026325;28;20714;-70
2022/05/27 14:20:22;;;;;;;7.70;1.30;;;16.30;99.90;;;;;;5030378;28;20358;-70
2022/05/27 14:23:17;;;;;;;5.67;1.30;;;16.30;99.90;;;;;;5032397;28;20266;-70
2022/05/27 14:26:04;;;;;;;6.03;1.47;;;16.20;99.90;;;;;;5028208;28;20187;-71
2022/05/27 14:28:51;;;;;;;7.43;1.63;;;16.20;99.90;;;;;;5031388;28;20215;-71
2022/05/27 14:31:39;;;;;;;9.60;1.80;;;16.20;99.90;;;;;;5032448;28;20191;-70
2022/05/27 14:34:25;;;;;;;10.30;1.50;;;16.10;99.90;;;;;;5019176;28;20191;-71
2022/05/27 14:37:33;;;;;;;8.48;1.90;;;16.00;99.90;;;;;;5027789;28;20412;-71
2022/05/27 14:40:33;;;;;;;8.37;1.67;;;15.90;99.90;;;;;;5032518;28;20585;-71
2022/05/27 14:43:47;;;;;;;4.60;1.13;;;16.00;99.90;;;;;;5033487;28;20207;-71
2022/05/27 14:46:36;;;;;;;6.93;1.67;;;15.90;99.90;;;;;;5012418;28;20902;-70
2022/05/27 14:49:40;;;;;;;6.93;1.63;;;15.90;99.90;;;;;;5024663;28;20200;-71
2022/05/27 14:52:30;;;;;;;6.17;1.63;;;15.80;99.90;;;;;;5036197;28;20191;-70
2022/05/27 14:55:22;;;;;;;5.37;1.37;;;15.90;99.90;;;;;;5032831;28;20548;-70
2022/05/27 14:58:08;;;;;;;4.20;1.60;;;16.00;99.90;;;;;;5030845;28;20182;-71
2022/05/27 15:00:52;;;;;;;6.67;1.20;;;16.00;99.90;;;;;;5033866;28;20730;-71
2022/05/27 15:03:40;;;;;;;4.90;1.70;;;16.00;99.90;;;;;;5031386;28;20422;-70
2022/05/27 15:06:26;;;;;;;5.80;1.40;;;16.00;99.90;;;;;;5040445;28;20230;-71
2022/05/27 15:09:14;;;;;;;9.52;2.17;;;15.90;99.90;;;;;;5031579;28;20402;-71
2022/05/27 15:12:23;;;;;;;5.77;1.23;;;16.00;99.90;;;;;;5039540;28;20242;-71
2022/05/27 15:15:07;;;;;;;8.23;1.83;;;15.90;99.90;;;;;;5029233;28;20485;-71
2022/05/27 15:18:08;;;;;;;7.83;1.40;;;15.90;99.90;;;;;;5032821;28;20208;-71
2022/05/27 15:21:05;;;;;;;9.27;2.05;;;15.80;99.90;;;;;;5028702;28;20460;-71
2022/05/27 15:23:52;;;;;;;8.73;2.00;;;15.90;99.90;;;;;;5029563;28;20211;-71